| time (UTC) | temp C | wind direction | speed KPH | gust KPH | rain 1hr cm | rain 24hr cm | rain mn cm | humidity % | barometer mb |
| 20260506034032 | 15 | 227 | 0.0 | 0.0 | 0.00 | 0.03 | 0.03 | 43 | 1016.9 |
| 20260506033530 | 15 | 267 | 0.0 | 3.2 | 0.00 | 0.03 | 0.03 | 43 | 1016.9 |
| 20260506033027 | 15 | 256 | 0.0 | 0.0 | 0.00 | 0.03 | 0.03 | 43 | 1016.5 |
| 20260506032524 | 16 | 281 | 0.0 | 1.6 | 0.00 | 0.03 | 0.03 | 42 | 1016.4 |
| 20260506032021 | 16 | 245 | 0.0 | 0.0 | 0.00 | 0.03 | 0.03 | 41 | 1016.2 |
| 20260506031519 | 16 | 262 | 0.0 | 0.0 | 0.00 | 0.03 | 0.03 | 40 | 1016.3 |
| 20260506031015 | 16 | 264 | 0.0 | 0.0 | 0.00 | 0.03 | 0.03 | 39 | 1016.3 |
| 20260506030513 | 16 | 229 | 0.0 | 1.6 | 0.00 | 0.03 | 0.03 | 36 | 1016.1 |
| 20260506030010 | 16 | 284 | 0.0 | 1.6 | 0.00 | 0.03 | 0.03 | 36 | 1016.2 |
| 20260506025507 | 16 | 245 | 0.0 | 1.6 | 0.00 | 0.03 | 0.03 | 35 | 1016.1 |
| 20260506025003 | 16 | 312 | 1.6 | 3.2 | 0.00 | 0.03 | 0.03 | 35 | 1016.1 |
| 20260506024500 | 16 | 276 | 0.0 | 0.0 | 0.00 | 0.03 | 0.03 | 35 | 1015.7 |
| 20260506023956 | 17 | 240 | 0.0 | 0.0 | 0.00 | 0.03 | 0.03 | 35 | 1015.7 |
| 20260506023453 | 17 | 268 | 0.0 | 0.0 | 0.00 | 0.03 | 0.03 | 34 | 1015.6 |
| 20260506022950 | 17 | 217 | 3.2 | 3.2 | 0.00 | 0.03 | 0.03 | 34 | 1015.4 |
| 20260506022448 | 17 | 237 | 3.2 | 4.8 | 0.00 | 0.03 | 0.03 | 34 | 1015.5 |
| 20260506021945 | 17 | 242 | 0.0 | 0.0 | 0.00 | 0.03 | 0.03 | 34 | 1015.5 |
| 20260506021442 | 17 | 232 | 1.6 | 3.2 | 0.00 | 0.03 | 0.03 | 34 | 1015.1 |
| 20260506020939 | 17 | 243 | 1.6 | 3.2 | 0.00 | 0.03 | 0.03 | 34 | 1015.3 |
| 20260506020437 | 18 | 212 | 3.2 | 3.2 | 0.00 | 0.03 | 0.03 | 34 | 1015.0 |
| 20260506015934 | 18 | 219 | 1.6 | 3.2 | 0.00 | 0.03 | 0.03 | 33 | 1014.9 |
| 20260506015431 | 18 | 209 | 4.8 | 8.0 | 0.00 | 0.03 | 0.03 | 33 | 1015.1 |
| 20260506014928 | 18 | 257 | 0.0 | 1.6 | 0.00 | 0.03 | 0.03 | 33 | 1014.9 |
| 20260506014425 | 18 | 194 | 3.2 | 3.2 | 0.00 | 0.03 | 0.03 | 32 | 1014.9 |
| 20260506013921 | 18 | 215 | 4.8 | 4.8 | 0.00 | 0.03 | 0.03 | 31 | 1014.7 |
| 20260506013420 | 19 | 184 | 3.2 | 3.2 | 0.00 | 0.03 | 0.03 | 30 | 1014.6 |
| 20260506012916 | 19 | 238 | 3.2 | 3.2 | 0.00 | 0.03 | 0.03 | 29 | 1014.6 |
| 20260506012412 | 19 | 203 | 4.8 | 4.8 | 0.00 | 0.03 | 0.03 | 29 | 1014.5 |
| 20260506011910 | 20 | 250 | 3.2 | 3.2 | 0.00 | 0.03 | 0.03 | 28 | 1014.6 |
| 20260506011407 | 20 | 196 | 3.2 | 3.2 | 0.00 | 0.03 | 0.03 | 28 | 1014.3 |
| 20260506010903 | 20 | 184 | 4.8 | 4.8 | 0.00 | 0.03 | 0.03 | 28 | 1014.5 |
| 20260506010402 | 20 | 197 | 4.8 | 4.8 | 0.00 | 0.03 | 0.03 | 28 | 1014.5 |
| 20260506005858 | 20 | 225 | 3.2 | 3.2 | 0.00 | 0.03 | 0.03 | 28 | 1014.3 |
| 20260506005355 | 20 | 217 | 3.2 | 4.8 | 0.00 | 0.03 | 0.03 | 28 | 1014.1 |
| 20260506004850 | 20 | 240 | 4.8 | 4.8 | 0.00 | 0.03 | 0.03 | 29 | 1014.1 |
| 20260506004349 | 21 | 253 | 4.8 | 8.0 | 0.00 | 0.03 | 0.03 | 29 | 1013.9 |
| 20260506003845 | 20 | 221 | 4.8 | 4.8 | 0.00 | 0.03 | 0.03 | 28 | 1013.8 |
| 20260506003341 | 20 | 228 | 4.8 | 8.0 | 0.00 | 0.03 | 0.03 | 29 | 1013.7 |
| 20260506002838 | 21 | 197 | 4.8 | 4.8 | 0.00 | 0.03 | 0.03 | 28 | 1014.0 |
| 20260506002334 | 21 | 223 | 4.8 | 8.0 | 0.00 | 0.03 | 0.03 | 28 | 1014.1 |
| 20260506001830 | 21 | 217 | 4.8 | 4.8 | 0.00 | 0.03 | 0.03 | 27 | 1013.9 |
| 20260506001327 | 21 | 193 | 4.8 | 4.8 | 0.00 | 0.03 | 0.03 | 26 | 1013.8 |
| 20260506000824 | 21 | 194 | 6.4 | 8.0 | 0.00 | 0.03 | 0.03 | 26 | 1013.9 |
| 20260506000323 | 21 | 204 | 8.0 | 12.9 | 0.00 | 0.03 | 0.03 | 26 | 1013.9 |
| 20260505235818 | 21 | 203 | 4.8 | 8.0 | 0.00 | 0.03 | 0.03 | 26 | 1013.6 |
| 20260505235316 | 21 | 205 | 6.4 | 8.0 | 0.00 | 0.03 | 0.03 | 26 | 1013.7 |
| 20260505234813 | 21 | 211 | 3.2 | 4.8 | 0.00 | 0.03 | 0.03 | 27 | 1013.7 |
| 20260505234311 | 21 | 220 | 4.8 | 8.0 | 0.00 | 0.03 | 0.03 | 26 | 1013.4 |
| 20260505233807 | 21 | 211 | 4.8 | 4.8 | 0.00 | 0.03 | 0.03 | 26 | 1013.8 |
| 20260505233305 | 22 | 225 | 6.4 | 8.0 | 0.00 | 0.03 | 0.03 | 26 | 1013.7 |
| 20260505232802 | 22 | 205 | 8.0 | 9.7 | 0.00 | 0.03 | 0.03 | 25 | 1013.7 |
| 20260505232300 | 21 | 191 | 6.4 | 8.0 | 0.00 | 0.03 | 0.03 | 25 | 1013.8 |
| 20260505231756 | 22 | 221 | 4.8 | 8.0 | 0.00 | 0.03 | 0.03 | 25 | 1013.6 |
| 20260505231255 | 22 | 217 | 6.4 | 8.0 | 0.00 | 0.03 | 0.03 | 24 | 1013.8 |
| 20260505230752 | 22 | 221 | 6.4 | 8.0 | 0.00 | 0.03 | 0.03 | 24 | 1013.6 |
| 20260505230249 | 22 | 252 | 8.0 | 9.7 | 0.00 | 0.03 | 0.03 | 24 | 1013.4 |
| 20260505225746 | 22 | 215 | 6.4 | 9.7 | 0.00 | 0.03 | 0.03 | 24 | 1013.6 |
| 20260505225243 | 22 | 219 | 6.4 | 8.0 | 0.00 | 0.03 | 0.03 | 24 | 1013.7 |
| 20260505224738 | 22 | 211 | 6.4 | 8.0 | 0.00 | 0.03 | 0.03 | 25 | 1013.4 |
| 20260505224236 | 22 | 203 | 8.0 | 11.3 | 0.00 | 0.03 | 0.03 | 24 | 1013.7 |
| 20260505223733 | 22 | 191 | 8.0 | 8.0 | 0.00 | 0.03 | 0.03 | 25 | 1013.7 |
| 20260505223229 | 22 | 194 | 4.8 | 4.8 | 0.00 | 0.03 | 0.03 | 25 | 1013.8 |
| 20260505222725 | 22 | 191 | 8.0 | 9.7 | 0.00 | 0.03 | 0.03 | 25 | 1013.8 |
| 20260505222221 | 22 | 226 | 6.4 | 8.0 | 0.00 | 0.03 | 0.03 | 26 | 1013.9 |
| 20260505221719 | 22 | 228 | 4.8 | 4.8 | 0.00 | 0.03 | 0.03 | 27 | 1013.9 |
| 20260505221215 | 22 | 180 | 4.8 | 4.8 | 0.00 | 0.03 | 0.03 | 27 | 1014.0 |
| 20260505220712 | 21 | 189 | 8.0 | 11.3 | 0.00 | 0.03 | 0.03 | 26 | 1014.1 |
| 20260505220210 | 22 | 202 | 6.4 | 11.3 | 0.00 | 0.03 | 0.03 | 26 | 1014.0 |
| 20260505215708 | 22 | 223 | 6.4 | 9.7 | 0.00 | 0.03 | 0.03 | 26 | 1014.0 |
| 20260505215206 | 22 | 190 | 9.7 | 14.5 | 0.00 | 0.03 | 0.03 | 27 | 1014.5 |
| 20260505214703 | 22 | 186 | 4.8 | 4.8 | 0.00 | 0.03 | 0.03 | 28 | 1014.3 |
| 20260505214200 | 21 | 186 | 4.8 | 8.0 | 0.00 | 0.03 | 0.03 | 29 | 1014.6 |
| 20260505213658 | 22 | 227 | 6.4 | 9.7 | 0.00 | 0.03 | 0.03 | 29 | 1014.6 |
| 20260505213155 | 22 | 216 | 6.4 | 8.0 | 0.00 | 0.03 | 0.03 | 29 | 1014.6 |
| 20260505212650 | 21 | 182 | 6.4 | 8.0 | 0.00 | 0.03 | 0.03 | 31 | 1014.2 |
| 20260505212148 | 22 | 225 | 6.4 | 8.0 | 0.00 | 0.03 | 0.03 | 30 | 1014.6 |
| 20260505211645 | 22 | 218 | 6.4 | 11.3 | 0.00 | 0.03 | 0.03 | 30 | 1014.7 |
| 20260505211142 | 22 | 211 | 6.4 | 9.7 | 0.00 | 0.03 | 0.03 | 30 | 1014.7 |
| 20260505210639 | 22 | 244 | 6.4 | 8.0 | 0.00 | 0.03 | 0.03 | 31 | 1015.1 |
| 20260505210135 | 22 | 200 | 6.4 | 8.0 | 0.00 | 0.03 | 0.03 | 31 | 1015.0 |
| 20260505205633 | 22 | 195 | 9.7 | 16.1 | 0.00 | 0.03 | 0.03 | 31 | 1015.0 |
| 20260505205131 | 22 | 195 | 6.4 | 11.3 | 0.00 | 0.03 | 0.03 | 31 | 1014.7 |
| 20260505204627 | 21 | 226 | 6.4 | 8.0 | 0.00 | 0.03 | 0.03 | 32 | 1015.0 |
| 20260505204125 | 22 | 174 | 11.3 | 16.1 | 0.00 | 0.03 | 0.03 | 30 | 1015.1 |
| 20260505203621 | 21 | 148 | 6.4 | 9.7 | 0.00 | 0.03 | 0.03 | 32 | 1015.1 |
| 20260505203119 | 21 | 195 | 6.4 | 9.7 | 0.00 | 0.03 | 0.03 | 32 | 1015.0 |
| 20260505202615 | 21 | 207 | 6.4 | 8.0 | 0.00 | 0.03 | 0.03 | 33 | 1015.3 |
| 20260505202111 | 21 | 213 | 6.4 | 8.0 | 0.00 | 0.03 | 0.03 | 35 | 1015.3 |
| 20260505201607 | 21 | 169 | 6.4 | 8.0 | 0.00 | 0.03 | 0.03 | 34 | 1015.3 |
| 20260505201105 | 21 | 191 | 6.4 | 8.0 | 0.00 | 0.03 | 0.03 | 33 | 1015.0 |
| 20260505200603 | 21 | 204 | 6.4 | 8.0 | 0.00 | 0.03 | 0.03 | 34 | 1015.0 |
| 20260505200100 | 21 | 179 | 11.3 | 22.5 | 0.00 | 0.03 | 0.03 | 35 | 1015.4 |
| 20260505195556 | 21 | 176 | 6.4 | 8.0 | 0.00 | 0.03 | 0.03 | 37 | 1015.5 |
| 20260505195054 | 21 | 177 | 6.4 | 8.0 | 0.00 | 0.03 | 0.03 | 34 | 1015.4 |
| 20260505194550 | 21 | 209 | 4.8 | 8.0 | 0.00 | 0.03 | 0.03 | 36 | 1015.7 |
| 20260505194046 | 21 | 152 | 11.3 | 12.9 | 0.00 | 0.03 | 0.03 | 34 | 1015.6 |
| 20260505193543 | 21 | 220 | 3.2 | 3.2 | 0.00 | 0.03 | 0.03 | 35 | 1015.8 |
| 20260505193040 | 21 | 187 | 4.8 | 8.0 | 0.00 | 0.03 | 0.03 | 36 | 1015.8 |
| 20260505192539 | 20 | 213 | 4.8 | 8.0 | 0.00 | 0.03 | 0.03 | 38 | 1016.1 |
| 20260505192036 | 21 | 204 | 4.8 | 8.0 | 0.00 | 0.03 | 0.03 | 36 | 1016.3 |
| 20260505191534 | 21 | 228 | 6.4 | 8.0 | 0.00 | 0.03 | 0.03 | 37 | 1016.2 |
| 20260505191032 | 21 | 231 | 3.2 | 4.8 | 0.00 | 0.03 | 0.03 | 36 | 1016.4 |
| 20260505190526 | 21 | 204 | 4.8 | 8.0 | 0.00 | 0.03 | 0.03 | 36 | 1016.1 |
| 20260505190022 | 21 | 206 | 4.8 | 4.8 | 0.00 | 0.03 | 0.03 | 35 | 1016.4 |
| 20260505185520 | 20 | 136 | 0.0 | 3.2 | 0.00 | 0.03 | 0.03 | 39 | 1016.5 |
| 20260505185016 | 20 | 199 | 6.4 | 8.0 | 0.00 | 0.03 | 0.03 | 36 | 1016.4 |
| 20260505184513 | 20 | 248 | 1.6 | 3.2 | 0.00 | 0.03 | 0.03 | 37 | 1016.5 |
| 20260505184009 | 20 | 209 | 3.2 | 4.8 | 0.00 | 0.03 | 0.03 | 40 | 1016.4 |
| 20260505183506 | 20 | 138 | 1.6 | 3.2 | 0.00 | 0.03 | 0.03 | 39 | 1016.9 |
| 20260505183004 | 20 | 195 | 3.2 | 3.2 | 0.00 | 0.03 | 0.03 | 41 | 1016.7 |
| 20260505182500 | 20 | 183 | 4.8 | 8.0 | 0.00 | 0.03 | 0.03 | 41 | 1016.6 |
| 20260505181956 | 19 | 160 | 1.6 | 3.2 | 0.00 | 0.03 | 0.03 | 43 | 1016.7 |
| 20260505181453 | 20 | 178 | 4.8 | 4.8 | 0.00 | 0.03 | 0.03 | 41 | 1017.0 |
| 20260505180950 | 19 | 167 | 3.2 | 3.2 | 0.00 | 0.03 | 0.03 | 44 | 1016.6 |
| 20260505180446 | 18 | 182 | 6.4 | 8.0 | 0.00 | 0.03 | 0.03 | 43 | 1016.9 |
| 20260505175943 | 18 | 233 | 1.6 | 3.2 | 0.00 | 0.03 | 0.03 | 44 | 1016.9 |
| 20260505175439 | 18 | 243 | 0.0 | 0.0 | 0.00 | 0.03 | 0.03 | 45 | 1017.0 |
| 20260505174936 | 18 | 201 | 1.6 | 3.2 | 0.00 | 0.03 | 0.03 | 50 | 1017.0 |
| 20260505174434 | 18 | 14 | 3.2 | 3.2 | 0.00 | 0.03 | 0.03 | 50 | 1016.7 |
| 20260505173929 | 18 | 9 | 0.0 | 0.0 | 0.00 | 0.03 | 0.03 | 51 | 1017.0 |
| 20260505173426 | 17 | 22 | 0.0 | 0.0 | 0.00 | 0.03 | 0.03 | 51 | 1017.0 |
| 20260505172923 | 17 | 188 | 0.0 | 0.0 | 0.00 | 0.03 | 0.03 | 51 | 1017.0 |
| 20260505172422 | 17 | 53 | 0.0 | 0.0 | 0.00 | 0.03 | 0.03 | 54 | 1016.9 |
| 20260505171920 | 17 | 76 | 4.8 | 4.8 | 0.00 | 0.03 | 0.03 | 53 | 1017.2 |
| 20260505171418 | 16 | 85 | 1.6 | 3.2 | 0.00 | 0.03 | 0.03 | 55 | 1016.7 |
| 20260505170914 | 16 | 59 | 3.2 | 8.0 | 0.00 | 0.03 | 0.03 | 58 | 1017.0 |
| 20260505170411 | 16 | 75 | 4.8 | 4.8 | 0.00 | 0.03 | 0.03 | 58 | 1017.0 |
| 20260505165906 | 15 | 125 | 3.2 | 3.2 | 0.00 | 0.03 | 0.03 | 61 | 1016.7 |
| 20260505165403 | 15 | 86 | 4.8 | 8.0 | 0.00 | 0.03 | 0.03 | 61 | 1016.7 |
| 20260505164858 | 15 | 96 | 1.6 | 3.2 | 0.00 | 0.03 | 0.03 | 64 | 1017.1 |
| 20260505164355 | 15 | 129 | 4.8 | 8.0 | 0.00 | 0.03 | 0.03 | 64 | 1017.2 |
| 20260505163853 | 15 | 118 | 1.6 | 3.2 | 0.00 | 0.03 | 0.03 | 64 | 1017.2 |
| 20260505163352 | 15 | 107 | 3.2 | 3.2 | 0.00 | 0.03 | 0.03 | 63 | 1017.0 |
| 20260505162850 | 15 | 96 | 0.0 | 1.6 | 0.00 | 0.03 | 0.03 | 66 | 1017.0 |
| 20260505162345 | 15 | 63 | 1.6 | 3.2 | 0.13 | 0.03 | 0.03 | 66 | 1017.2 |
| 20260505161843 | 14 | 117 | 1.6 | 3.2 | 0.00 | 0.00 | 0.00 | 69 | 1017.0 |
| 20260505161340 | 14 | 148 | 1.6 | 3.2 | 0.00 | 0.00 | 0.00 | 69 | 1017.0 |
| 20260505160837 | 14 | 107 | 1.6 | 4.8 | 0.00 | 0.00 | 0.00 | 70 | 1017.0 |
| 20260505160335 | 14 | 58 | 0.0 | 0.0 | 0.00 | 0.00 | 0.00 | 70 | 1017.0 |
| 20260505153314 | 13 | 121 | 0.0 | 0.0 | 0.00 | 0.00 | 0.00 | 70 | 1016.9 |
| 20260505152811 | 13 | 80 | 3.2 | 3.2 | 0.00 | 0.00 | 0.00 | 71 | 1016.7 |
| 20260505152308 | 13 | 72 | 1.6 | 1.6 | 0.00 | 0.00 | 0.00 | 71 | 1016.5 |
| 20260505151802 | 13 | 77 | 0.0 | 0.0 | 0.00 | 0.00 | 0.00 | 72 | 1016.7 |
| 20260505151259 | 13 | 130 | 0.0 | 0.0 | 0.00 | 0.00 | 0.00 | 73 | 1016.6 |
| 20260505150756 | 13 | 81 | 0.0 | 0.0 | 0.00 | 0.00 | 0.00 | 74 | 1016.6 |
| 20260505150253 | 12 | 117 | 3.2 | 4.8 | 0.00 | 0.00 | 0.00 | 75 | 1016.5 |
| 20260505140217 | 12 | 119 | 0.0 | 3.2 | 0.00 | 0.00 | 0.00 | 67 | 1016.3 |
| 20260505130141 | 13 | 80 | 1.6 | 1.6 | 0.00 | 0.00 | 0.00 | 62 | 1015.4 |
| 20260505124631 | 12 | 113 | 3.2 | 3.2 | 0.00 | 0.00 | 0.00 | 65 | 1015.6 |
| 20260505124128 | 12 | 110 | 3.2 | 3.2 | 0.00 | 0.00 | 0.00 | 68 | 1015.0 |
| 20260505123623 | 12 | 98 | 0.0 | 0.0 | 0.00 | 0.00 | 0.00 | 76 | 1015.0 |
| 20260505123120 | 12 | 74 | 0.0 | 1.6 | 0.00 | 0.00 | 0.00 | 80 | 1015.0 |
| 20260505122617 | 13 | 68 | 0.0 | 0.0 | 0.00 | 0.00 | 0.00 | 80 | 1015.5 |
| 20260505122115 | 13 | 75 | 0.0 | 0.0 | 0.00 | 0.00 | 0.00 | 80 | 1015.6 |
| 20260505121611 | 13 | 57 | 0.0 | 0.0 | 0.00 | 0.00 | 0.00 | 80 | 1015.6 |
| 20260505121108 | 13 | 57 | 0.0 | 0.0 | 0.00 | 0.00 | 0.00 | 79 | 1015.6 |
| 20260505120604 | 13 | 57 | 0.0 | 0.0 | 0.00 | 0.00 | 0.00 | 78 | 1015.6 |
| 20260505120100 | 13 | 57 | 0.0 | 0.0 | 0.00 | 0.00 | 0.00 | 78 | 1015.5 |
| 20260505115554 | 13 | 60 | 1.6 | 3.2 | 0.00 | 0.00 | 0.00 | 77 | 1015.4 |
| 20260505115051 | 13 | 51 | 1.6 | 3.2 | 0.00 | 0.00 | 0.00 | 75 | 1015.4 |
| 20260505114543 | 13 | 54 | 0.0 | 1.6 | 0.00 | 0.00 | 0.00 | 75 | 1015.6 |
| 20260505114039 | 13 | 50 | 1.6 | 3.2 | 0.00 | 0.00 | 0.00 | 74 | 1015.8 |
| 20260505113536 | 13 | 50 | 0.0 | 0.0 | 0.00 | 0.00 | 0.00 | 73 | 1015.8 |
| 20260505113032 | 13 | 52 | 0.0 | 0.0 | 0.00 | 0.00 | 0.00 | 72 | 1016.4 |
| 20260505112528 | 13 | 52 | 0.0 | 0.0 | 0.00 | 0.00 | 0.00 | 70 | 1016.2 |
| 20260505112026 | 13 | 38 | 0.0 | 0.0 | 0.00 | 0.00 | 0.00 | 68 | 1016.5 |
| 20260505111520 | 13 | 54 | 0.0 | 0.0 | 0.00 | 0.00 | 0.00 | 71 | 1016.1 |
| 20260505111017 | 13 | 54 | 0.0 | 0.0 | 0.00 | 0.00 | 0.00 | 67 | 1016.4 |
| 20260505110514 | 13 | 20 | 0.0 | 0.0 | 0.00 | 0.00 | 0.00 | 56 | 1016.3 |
| 20260505101945 | 14 | 288 | 0.0 | 0.0 | 0.00 | 0.00 | 0.00 | 65 | 1016.9 |
| 20260505101438 | 15 | 284 | 0.0 | 1.6 | 0.00 | 0.00 | 0.00 | 65 | 1016.7 |
| 20260505100934 | 15 | 307 | 0.0 | 1.6 | 0.00 | 0.00 | 0.00 | 65 | 1017.1 |
| 20260505100431 | 15 | 312 | 3.2 | 3.2 | 0.00 | 0.00 | 0.00 | 64 | 1017.3 |
| 20260505095927 | 15 | 356 | 1.6 | 3.2 | 0.00 | 0.00 | 0.00 | 61 | 1017.2 |
| 20260505095424 | 15 | 276 | 0.0 | 0.0 | 0.00 | 0.00 | 0.00 | 59 | 1017.2 |
| 20260505094920 | 15 | 276 | 3.2 | 3.2 | 0.00 | 0.00 | 0.00 | 44 | 1017.2 |
| 20260505094418 | 15 | 279 | 0.0 | 3.2 | 0.00 | 0.00 | 0.00 | 53 | 1017.0 |
| 20260505093914 | 15 | 301 | 1.6 | 3.2 | 0.00 | 0.00 | 0.00 | 54 | 1017.3 |
| 20260505093411 | 15 | 340 | 0.0 | 0.0 | 0.00 | 0.00 | 0.00 | 52 | 1017.4 |
| 20260505092908 | 15 | 308 | 0.0 | 0.0 | 0.00 | 0.00 | 0.00 | 50 | 1017.3 |
| 20260505092406 | 15 | 296 | 0.0 | 0.0 | 0.00 | 0.00 | 0.00 | 50 | 1017.5 |
| 20260505091903 | 15 | 272 | 0.0 | 1.6 | 0.00 | 0.00 | 0.00 | 50 | 1017.4 |
| 20260505091401 | 15 | 309 | 3.2 | 4.8 | 0.00 | 0.00 | 0.00 | 49 | 1018.0 |
| 20260505090858 | 16 | 308 | 3.2 | 4.8 | 0.00 | 0.00 | 0.00 | 49 | 1017.6 |
| 20260505090356 | 16 | 264 | 0.0 | 3.2 | 0.00 | 0.00 | 0.00 | 48 | 1017.8 |
| 20260505085853 | 16 | 289 | 1.6 | 1.6 | 0.00 | 0.00 | 0.00 | 47 | 1017.6 |
| 20260505085351 | 16 | 270 | 3.2 | 3.2 | 0.00 | 0.00 | 0.00 | 48 | 1018.0 |
| 20260505084849 | 16 | 294 | 1.6 | 3.2 | 0.00 | 0.00 | 0.00 | 47 | 1017.8 |
| 20260505084347 | 16 | 275 | 1.6 | 3.2 | 0.00 | 0.00 | 0.00 | 47 | 1018.0 |
| 20260505083844 | 16 | 282 | 1.6 | 3.2 | 0.00 | 0.00 | 0.00 | 45 | 1017.9 |
| 20260505083342 | 16 | 313 | 3.2 | 3.2 | 0.00 | 0.00 | 0.00 | 45 | 1017.9 |
| 20260505082838 | 16 | 277 | 0.0 | 0.0 | 0.00 | 0.00 | 0.00 | 44 | 1018.1 |
| 20260505082334 | 16 | 294 | 0.0 | 1.6 | 0.00 | 0.00 | 0.00 | 43 | 1018.2 |
| 20260505081831 | 16 | 283 | 0.0 | 0.0 | 0.00 | 0.00 | 0.00 | 42 | 1018.3 |
| 20260505081327 | 16 | 317 | 1.6 | 3.2 | 0.00 | 0.00 | 0.00 | 40 | 1018.1 |
| 20260505080825 | 16 | 236 | 0.0 | 1.6 | 0.00 | 0.00 | 0.00 | 39 | 1018.2 |
| 20260505080320 | 16 | 327 | 0.0 | 1.6 | 0.00 | 0.00 | 0.00 | 38 | 1018.0 |
| 20260505075816 | 16 | 295 | 0.0 | 1.6 | 0.00 | 0.00 | 0.00 | 38 | 1017.9 |
| 20260505075313 | 16 | 266 | 1.6 | 1.6 | 0.00 | 0.00 | 0.00 | 37 | 1018.0 |
| 20260505074810 | 16 | 331 | 1.6 | 3.2 | 0.00 | 0.00 | 0.00 | 36 | 1018.1 |
| 20260505074307 | 16 | 318 | 3.2 | 4.8 | 0.00 | 0.00 | 0.00 | 35 | 1018.4 |
| 20260505073805 | 17 | 306 | 0.0 | 0.0 | 0.00 | 0.00 | 0.00 | 34 | 1018.6 |
| 20260505073303 | 16 | 283 | 0.0 | 1.6 | 0.00 | 0.00 | 0.00 | 34 | 1018.8 |
| 20260505072759 | 17 | 287 | 0.0 | 0.0 | 0.00 | 0.00 | 0.00 | 34 | 1018.6 |
| 20260505072255 | 17 | 307 | 0.0 | 0.0 | 0.00 | 0.00 | 0.00 | 33 | 1018.4 |
| 20260505071751 | 17 | 255 | 0.0 | 0.0 | 0.00 | 0.00 | 0.00 | 33 | 1018.4 |
| 20260505071248 | 17 | 268 | 0.0 | 0.0 | 0.00 | 0.00 | 0.00 | 31 | 1018.4 |
| 20260505070746 | 17 | 245 | 3.2 | 4.8 | 0.00 | 0.00 | 0.00 | 29 | 1018.9 |
| 20260505070242 | 17 | 283 | 1.6 | 1.6 | 0.00 | 0.00 | 0.00 | 29 | 1018.3 |
| 20260505065737 | 17 | 225 | 4.8 | 4.8 | 0.00 | 0.00 | 0.00 | 30 | 1018.4 |
| 20260505065235 | 17 | 219 | 0.0 | 1.6 | 0.00 | 0.00 | 0.00 | 31 | 1018.7 |
| 20260505064731 | 17 | 266 | 1.6 | 3.2 | 0.00 | 0.00 | 0.00 | 33 | 1018.3 |
| 20260505064229 | 17 | 235 | 3.2 | 3.2 | 0.00 | 0.00 | 0.00 | 33 | 1018.7 |
| 20260505063727 | 17 | 217 | 1.6 | 3.2 | 0.00 | 0.00 | 0.00 | 33 | 1018.1 |
| 20260505063223 | 17 | 253 | 3.2 | 3.2 | 0.00 | 0.00 | 0.00 | 33 | 1018.3 |
| 20260505062719 | 17 | 237 | 3.2 | 3.2 | 0.00 | 0.00 | 0.00 | 32 | 1018.1 |
| 20260505062217 | 17 | 239 | 3.2 | 3.2 | 0.00 | 0.00 | 0.00 | 32 | 1018.7 |
| 20260505061714 | 17 | 233 | 3.2 | 4.8 | 0.00 | 0.00 | 0.00 | 31 | 1018.6 |
| 20260505061212 | 17 | 239 | 1.6 | 3.2 | 0.00 | 0.00 | 0.00 | 31 | 1018.7 |
| 20260505060709 | 17 | 242 | 1.6 | 3.2 | 0.00 | 0.00 | 0.00 | 30 | 1018.6 |
| 20260505060206 | 17 | 251 | 1.6 | 3.2 | 0.00 | 0.00 | 0.00 | 30 | 1018.8 |
| 20260505055701 | 17 | 265 | 0.0 | 0.0 | 0.00 | 0.00 | 0.00 | 31 | 1018.6 |
| 20260505055157 | 18 | 224 | 3.2 | 4.8 | 0.00 | 0.00 | 0.00 | 30 | 1018.4 |
| 20260505054655 | 18 | 254 | 3.2 | 4.8 | 0.00 | 0.00 | 0.00 | 31 | 1018.4 |
| 20260505054153 | 17 | 233 | 3.2 | 3.2 | 0.00 | 0.00 | 0.00 | 30 | 1018.2 |
| 20260505053650 | 17 | 237 | 1.6 | 3.2 | 0.00 | 0.00 | 0.00 | 32 | 1018.3 |
| 20260505053147 | 17 | 231 | 1.6 | 3.2 | 0.00 | 0.00 | 0.00 | 32 | 1018.6 |
| 20260505052644 | 17 | 254 | 3.2 | 3.2 | 0.00 | 0.00 | 0.00 | 32 | 1018.4 |
| 20260505052141 | 17 | 204 | 1.6 | 3.2 | 0.00 | 0.00 | 0.00 | 33 | 1018.4 |
| 20260505051637 | 17 | 271 | 0.0 | 1.6 | 0.00 | 0.00 | 0.00 | 34 | 1018.4 |
| 20260505051136 | 16 | 260 | 1.6 | 4.8 | 0.00 | 0.00 | 0.00 | 35 | 1018.8 |
| 20260505050633 | 16 | 255 | 1.6 | 3.2 | 0.00 | 0.00 | 0.00 | 35 | 1018.3 |
| 20260505050132 | 16 | 265 | 1.6 | 4.8 | 0.00 | 0.00 | 0.00 | 35 | 1018.8 |
| 20260505041601 | 16 | 275 | 0.0 | 0.0 | 0.00 | 0.00 | 0.00 | 38 | 1018.6 |
| 20260505041059 | 16 | 289 | 0.0 | 0.0 | 0.00 | 0.00 | 0.00 | 38 | 1018.4 |
| 20260505040556 | 17 | 267 | 0.0 | 0.0 | 0.00 | 0.00 | 0.00 | 38 | 1018.2 |
| 20260505040053 | 17 | 288 | 1.6 | 3.2 | 0.00 | 0.00 | 0.00 | 38 | 1018.0 |
| 20260505035549 | 17 | 315 | 0.0 | 1.6 | 0.00 | 0.00 | 0.00 | 38 | 1017.9 |
| 20260505035046 | 17 | 269 | 4.8 | 8.0 | 0.00 | 0.00 | 0.00 | 38 | 1018.6 |
| 20260505034542 | 17 | 261 | 1.6 | 3.2 | 0.00 | 0.00 | 0.00 | 38 | 1018.3 |